sensor_id;sensor_type;location;lat;lon;timestamp;temperature;humidity
2571;DHT22;1295;51.130;6.732;2023-04-25T00:02:23;11.30;99.90
2571;DHT22;1295;51.130;6.732;2023-04-25T00:04:49;11.30;99.90
2571;DHT22;1295;51.130;6.732;2023-04-25T00:07:15;11.20;99.90
2571;DHT22;1295;51.130;6.732;2023-04-25T00:09:41;11.20;99.90
2571;DHT22;1295;51.130;6.732;2023-04-25T00:12:06;11.20;99.90
2571;DHT22;1295;51.130;6.732;2023-04-25T00:14:32;11.30;99.90
2571;DHT22;1295;51.130;6.732;2023-04-25T00:16:57;11.20;99.90
2571;DHT22;1295;51.130;6.732;2023-04-25T00:19:23;11.20;99.90
2571;DHT22;1295;51.130;6.732;2023-04-25T00:21:49;11.20;99.90
2571;DHT22;1295;51.130;6.732;2023-04-25T00:24:15;11.10;99.90
2571;DHT22;1295;51.130;6.732;2023-04-25T00:26:40;11.20;99.90
2571;DHT22;1295;51.130;6.732;2023-04-25T00:29:06;11.20;99.90
2571;DHT22;1295;51.130;6.732;2023-04-25T00:31:32;11.20;99.90
2571;DHT22;1295;51.130;6.732;2023-04-25T00:33:57;11.20;99.90
2571;DHT22;1295;51.130;6.732;2023-04-25T00:36:23;11.20;99.90
2571;DHT22;1295;51.130;6.732;2023-04-25T00:38:49;11.20;99.90
2571;DHT22;1295;51.130;6.732;2023-04-25T00:41:14;10.90;99.90
2571;DHT22;1295;51.130;6.732;2023-04-25T00:43:41;11.10;99.90
2571;DHT22;1295;51.130;6.732;2023-04-25T00:46:07;11.10;99.90
2571;DHT22;1295;51.130;6.732;2023-04-25T00:48:32;11.10;99.90
2571;DHT22;1295;51.130;6.732;2023-04-25T00:50:58;11.10;99.90
2571;DHT22;1295;51.130;6.732;2023-04-25T00:53:24;11.10;99.90
2571;DHT22;1295;51.130;6.732;2023-04-25T00:55:49;11.00;99.90
2571;DHT22;1295;51.130;6.732;2023-04-25T00:58:15;10.90;99.90
2571;DHT22;1295;51.130;6.732;2023-04-25T01:00:40;11.00;99.90
2571;DHT22;1295;51.130;6.732;2023-04-25T01:03:06;10.40;99.90
2571;DHT22;1295;51.130;6.732;2023-04-25T01:05:32;10.60;99.90
2571;DHT22;1295;51.130;6.732;2023-04-25T01:07:57;10.70;99.90
2571;DHT22;1295;51.130;6.732;2023-04-25T01:10:24;10.30;99.90
2571;DHT22;1295;51.130;6.732;2023-04-25T01:12:49;10.30;99.90
2571;DHT22;1295;51.130;6.732;2023-04-25T01:15:15;10.80;99.90
2571;DHT22;1295;51.130;6.732;2023-04-25T01:17:41;10.30;99.90
2571;DHT22;1295;51.130;6.732;2023-04-25T01:20:08;10.30;99.90
2571;DHT22;1295;51.130;6.732;2023-04-25T01:22:34;10.40;99.90
2571;DHT22;1295;51.130;6.732;2023-04-25T01:24:59;10.50;99.90
2571;DHT22;1295;51.130;6.732;2023-04-25T01:27:25;10.70;99.90
2571;DHT22;1295;51.130;6.732;2023-04-25T01:29:51;10.60;99.90
2571;DHT22;1295;51.130;6.732;2023-04-25T01:32:17;10.50;99.90
2571;DHT22;1295;51.130;6.732;2023-04-25T01:34:43;10.40;99.90
2571;DHT22;1295;51.130;6.732;2023-04-25T01:37:08;10.70;99.90
2571;DHT22;1295;51.130;6.732;2023-04-25T01:39:40;10.60;99.90
2571;DHT22;1295;51.130;6.732;2023-04-25T01:42:05;10.60;99.90
2571;DHT22;1295;51.130;6.732;2023-04-25T01:44:31;10.10;99.90
2571;DHT22;1295;51.130;6.732;2023-04-25T01:46:56;10.50;99.90
2571;DHT22;1295;51.130;6.732;2023-04-25T01:49:22;10.70;99.90
2571;DHT22;1295;51.130;6.732;2023-04-25T01:51:48;10.60;99.90
2571;DHT22;1295;51.130;6.732;2023-04-25T01:54:13;9.80;99.90
2571;DHT22;1295;51.130;6.732;2023-04-25T01:56:39;10.30;99.90
2571;DHT22;1295;51.130;6.732;2023-04-25T01:59:05;10.40;99.90
2571;DHT22;1295;51.130;6.732;2023-04-25T02:01:31;10.80;99.90
2571;DHT22;1295;51.130;6.732;2023-04-25T02:03:57;10.80;99.90
2571;DHT22;1295;51.130;6.732;2023-04-25T02:06:22;10.80;99.90
2571;DHT22;1295;51.130;6.732;2023-04-25T02:08:48;10.80;99.90
2571;DHT22;1295;51.130;6.732;2023-04-25T02:11:14;10.40;99.90
2571;DHT22;1295;51.130;6.732;2023-04-25T02:13:40;10.40;99.90
2571;DHT22;1295;51.130;6.732;2023-04-25T02:16:06;10.60;99.90
2571;DHT22;1295;51.130;6.732;2023-04-25T02:18:31;10.70;99.90
2571;DHT22;1295;51.130;6.732;2023-04-25T02:20:59;10.80;99.90
2571;DHT22;1295;51.130;6.732;2023-04-25T02:23:23;10.80;99.90
2571;DHT22;1295;51.130;6.732;2023-04-25T02:25:49;10.80;99.90
2571;DHT22;1295;51.130;6.732;2023-04-25T02:28:15;10.60;99.90
2571;DHT22;1295;51.130;6.732;2023-04-25T02:30:40;10.80;99.90
2571;DHT22;1295;51.130;6.732;2023-04-25T02:33:06;10.80;99.90
2571;DHT22;1295;51.130;6.732;2023-04-25T02:35:32;10.80;99.90
2571;DHT22;1295;51.130;6.732;2023-04-25T02:37:58;10.50;99.90
2571;DHT22;1295;51.130;6.732;2023-04-25T02:40:24;10.50;99.90
2571;DHT22;1295;51.130;6.732;2023-04-25T02:42:50;10.10;99.90
2571;DHT22;1295;51.130;6.732;2023-04-25T02:45:16;10.10;99.90
2571;DHT22;1295;51.130;6.732;2023-04-25T02:47:41;10.50;99.90
2571;DHT22;1295;51.130;6.732;2023-04-25T02:50:07;10.60;99.90
2571;DHT22;1295;51.130;6.732;2023-04-25T02:52:33;10.70;99.90
2571;DHT22;1295;51.130;6.732;2023-04-25T02:54:59;10.70;99.90
2571;DHT22;1295;51.130;6.732;2023-04-25T02:57:25;10.70;99.90
2571;DHT22;1295;51.130;6.732;2023-04-25T02:59:50;10.70;99.90
2571;DHT22;1295;51.130;6.732;2023-04-25T03:02:16;10.60;99.90
2571;DHT22;1295;51.130;6.732;2023-04-25T03:04:42;10.70;99.90
2571;DHT22;1295;51.130;6.732;2023-04-25T03:07:07;10.70;99.90
2571;DHT22;1295;51.130;6.732;2023-04-25T03:09:33;10.70;99.90
2571;DHT22;1295;51.130;6.732;2023-04-25T03:12:06;10.70;99.90
2571;DHT22;1295;51.130;6.732;2023-04-25T03:14:32;10.70;99.90
2571;DHT22;1295;51.130;6.732;2023-04-25T03:16:57;10.60;99.90
2571;DHT22;1295;51.130;6.732;2023-04-25T03:19:22;10.60;99.90
2571;DHT22;1295;51.130;6.732;2023-04-25T03:21:49;10.60;99.90
2571;DHT22;1295;51.130;6.732;2023-04-25T03:24:14;10.60;99.90
2571;DHT22;1295;51.130;6.732;2023-04-25T03:26:40;10.60;99.90
2571;DHT22;1295;51.130;6.732;2023-04-25T03:29:06;10.60;99.90
2571;DHT22;1295;51.130;6.732;2023-04-25T03:31:32;10.60;99.90
2571;DHT22;1295;51.130;6.732;2023-04-25T03:33:57;10.60;99.90
2571;DHT22;1295;51.130;6.732;2023-04-25T03:36:23;10.60;99.90
2571;DHT22;1295;51.130;6.732;2023-04-25T03:38:48;10.60;99.90
2571;DHT22;1295;51.130;6.732;2023-04-25T03:41:14;10.60;99.90
2571;DHT22;1295;51.130;6.732;2023-04-25T03:43:40;10.50;99.90
2571;DHT22;1295;51.130;6.732;2023-04-25T03:46:05;10.50;99.90
2571;DHT22;1295;51.130;6.732;2023-04-25T03:48:31;10.50;99.90
2571;DHT22;1295;51.130;6.732;2023-04-25T03:50:57;10.60;99.90
2571;DHT22;1295;51.130;6.732;2023-04-25T03:53:23;10.50;99.90
2571;DHT22;1295;51.130;6.732;2023-04-25T03:55:49;10.60;99.90
2571;DHT22;1295;51.130;6.732;2023-04-25T03:58:14;10.30;99.90
2571;DHT22;1295;51.130;6.732;2023-04-25T04:00:40;10.40;99.90
2571;DHT22;1295;51.130;6.732;2023-04-25T04:03:05;10.50;99.90
2571;DHT22;1295;51.130;6.732;2023-04-25T04:05:31;10.50;99.90
2571;DHT22;1295;51.130;6.732;2023-04-25T04:07:57;10.50;99.90
2571;DHT22;1295;51.130;6.732;2023-04-25T04:10:23;10.50;99.90
2571;DHT22;1295;51.130;6.732;2023-04-25T04:12:48;10.50;99.90
2571;DHT22;1295;51.130;6.732;2023-04-25T04:15:14;10.40;99.90
2571;DHT22;1295;51.130;6.732;2023-04-25T04:17:40;10.50;99.90
2571;DHT22;1295;51.130;6.732;2023-04-25T04:20:07;10.50;99.90
2571;DHT22;1295;51.130;6.732;2023-04-25T04:22:33;10.40;99.90
2571;DHT22;1295;51.130;6.732;2023-04-25T04:24:58;10.50;99.90
2571;DHT22;1295;51.130;6.732;2023-04-25T04:27:31;10.40;99.90
2571;DHT22;1295;51.130;6.732;2023-04-25T04:29:57;10.50;99.90
2571;DHT22;1295;51.130;6.732;2023-04-25T04:32:23;10.40;99.90
2571;DHT22;1295;51.130;6.732;2023-04-25T04:34:49;10.40;99.90
2571;DHT22;1295;51.130;6.732;2023-04-25T04:37:15;10.40;99.90
2571;DHT22;1295;51.130;6.732;2023-04-25T04:39:40;10.40;99.90
2571;DHT22;1295;51.130;6.732;2023-04-25T04:42:06;10.40;99.90
2571;DHT22;1295;51.130;6.732;2023-04-25T04:44:32;10.40;99.90
2571;DHT22;1295;51.130;6.732;2023-04-25T04:46:58;10.30;99.90
2571;DHT22;1295;51.130;6.732;2023-04-25T04:49:24;10.40;99.90
2571;DHT22;1295;51.130;6.732;2023-04-25T04:51:50;10.10;99.90
2571;DHT22;1295;51.130;6.732;2023-04-25T04:54:16;10.10;99.90
2571;DHT22;1295;51.130;6.732;2023-04-25T04:56:42;10.30;99.90
2571;DHT22;1295;51.130;6.732;2023-04-25T04:59:08;10.20;99.90
2571;DHT22;1295;51.130;6.732;2023-04-25T05:01:34;10.20;99.90
2571;DHT22;1295;51.130;6.732;2023-04-25T05:04:00;10.20;99.90
2571;DHT22;1295;51.130;6.732;2023-04-25T05:06:26;10.20;99.90
2571;DHT22;1295;51.130;6.732;2023-04-25T05:08:51;10.30;99.90
2571;DHT22;1295;51.130;6.732;2023-04-25T05:11:17;10.30;99.90
2571;DHT22;1295;51.130;6.732;2023-04-25T05:13:43;10.30;99.90
2571;DHT22;1295;51.130;6.732;2023-04-25T05:16:08;9.80;99.90
2571;DHT22;1295;51.130;6.732;2023-04-25T05:18:34;10.10;99.90
2571;DHT22;1295;51.130;6.732;2023-04-25T05:20:59;10.10;99.90
2571;DHT22;1295;51.130;6.732;2023-04-25T05:23:25;10.30;99.90
2571;DHT22;1295;51.130;6.732;2023-04-25T05:25:51;10.10;99.90
2571;DHT22;1295;51.130;6.732;2023-04-25T05:28:17;10.30;99.90
2571;DHT22;1295;51.130;6.732;2023-04-25T05:30:43;10.30;99.90
2571;DHT22;1295;51.130;6.732;2023-04-25T05:33:08;10.10;99.90
2571;DHT22;1295;51.130;6.732;2023-04-25T05:35:34;10.30;99.90
2571;DHT22;1295;51.130;6.732;2023-04-25T05:38:00;10.30;99.90
2571;DHT22;1295;51.130;6.732;2023-04-25T05:40:25;10.30;99.90
2571;DHT22;1295;51.130;6.732;2023-04-25T05:42:51;10.10;99.90
2571;DHT22;1295;51.130;6.732;2023-04-25T05:45:17;10.20;99.90
2571;DHT22;1295;51.130;6.732;2023-04-25T05:47:43;10.30;99.90
2571;DHT22;1295;51.130;6.732;2023-04-25T05:50:09;10.30;99.90
2571;DHT22;1295;51.130;6.732;2023-04-25T05:52:35;10.20;99.90
2571;DHT22;1295;51.130;6.732;2023-04-25T05:55:01;10.20;99.90
2571;DHT22;1295;51.130;6.732;2023-04-25T05:57:26;10.30;99.90
2571;DHT22;1295;51.130;6.732;2023-04-25T05:59:52;10.30;99.90
2571;DHT22;1295;51.130;6.732;2023-04-25T06:02:18;10.20;99.90
2571;DHT22;1295;51.130;6.732;2023-04-25T06:04:44;10.30;99.90
2571;DHT22;1295;51.130;6.732;2023-04-25T06:07:15;10.30;99.90
2571;DHT22;1295;51.130;6.732;2023-04-25T06:09:45;10.30;99.90
2571;DHT22;1295;51.130;6.732;2023-04-25T06:12:11;10.30;99.90
2571;DHT22;1295;51.130;6.732;2023-04-25T06:14:37;10.20;99.90
2571;DHT22;1295;51.130;6.732;2023-04-25T06:17:03;10.00;99.90
2571;DHT22;1295;51.130;6.732;2023-04-25T06:19:29;10.00;99.90
2571;DHT22;1295;51.130;6.732;2023-04-25T06:21:55;10.10;99.90
2571;DHT22;1295;51.130;6.732;2023-04-25T06:24:20;10.20;99.90
2571;DHT22;1295;51.130;6.732;2023-04-25T06:26:46;10.30;99.90
2571;DHT22;1295;51.130;6.732;2023-04-25T06:29:11;10.30;99.90
2571;DHT22;1295;51.130;6.732;2023-04-25T06:31:38;10.20;99.90
2571;DHT22;1295;51.130;6.732;2023-04-25T06:34:04;10.20;99.90
2571;DHT22;1295;51.130;6.732;2023-04-25T06:36:30;10.20;99.90
2571;DHT22;1295;51.130;6.732;2023-04-25T06:38:55;10.20;99.90
2571;DHT22;1295;51.130;6.732;2023-04-25T06:41:21;10.30;99.90
2571;DHT22;1295;51.130;6.732;2023-04-25T06:43:47;10.20;99.90
2571;DHT22;1295;51.130;6.732;2023-04-25T06:46:12;10.00;99.90
2571;DHT22;1295;51.130;6.732;2023-04-25T06:48:38;10.10;99.90
2571;DHT22;1295;51.130;6.732;2023-04-25T06:51:04;10.10;99.90
2571;DHT22;1295;51.130;6.732;2023-04-25T06:53:29;10.10;99.90
2571;DHT22;1295;51.130;6.732;2023-04-25T06:55:55;10.20;99.90
2571;DHT22;1295;51.130;6.732;2023-04-25T06:58:21;10.10;99.90
2571;DHT22;1295;51.130;6.732;2023-04-25T07:00:47;10.20;99.90
2571;DHT22;1295;51.130;6.732;2023-04-25T07:03:13;10.20;99.90
2571;DHT22;1295;51.130;6.732;2023-04-25T07:05:38;10.20;99.90
2571;DHT22;1295;51.130;6.732;2023-04-25T07:08:04;10.20;99.90
2571;DHT22;1295;51.130;6.732;2023-04-25T07:10:30;10.10;99.90
2571;DHT22;1295;51.130;6.732;2023-04-25T07:12:55;10.20;99.90
2571;DHT22;1295;51.130;6.732;2023-04-25T07:15:21;10.20;99.90
2571;DHT22;1295;51.130;6.732;2023-04-25T07:17:46;10.10;99.90
2571;DHT22;1295;51.130;6.732;2023-04-25T07:20:13;10.20;99.90
2571;DHT22;1295;51.130;6.732;2023-04-25T07:22:39;10.20;99.90
2571;DHT22;1295;51.130;6.732;2023-04-25T07:25:06;10.10;99.90
2571;DHT22;1295;51.130;6.732;2023-04-25T07:27:32;10.10;99.90
2571;DHT22;1295;51.130;6.732;2023-04-25T07:29:57;10.20;99.90
2571;DHT22;1295;51.130;6.732;2023-04-25T07:32:24;10.20;99.90
2571;DHT22;1295;51.130;6.732;2023-04-25T07:34:49;10.20;99.90
2571;DHT22;1295;51.130;6.732;2023-04-25T07:37:15;10.20;99.90
2571;DHT22;1295;51.130;6.732;2023-04-25T07:39:41;10.20;99.90
2571;DHT22;1295;51.130;6.732;2023-04-25T07:42:08;10.10;99.90
2571;DHT22;1295;51.130;6.732;2023-04-25T07:44:34;10.10;99.90
2571;DHT22;1295;51.130;6.732;2023-04-25T07:47:00;10.10;99.90
2571;DHT22;1295;51.130;6.732;2023-04-25T07:49:26;9.90;99.90
2571;DHT22;1295;51.130;6.732;2023-04-25T07:51:52;9.90;99.90
2571;DHT22;1295;51.130;6.732;2023-04-25T07:54:17;10.10;99.90
2571;DHT22;1295;51.130;6.732;2023-04-25T07:56:43;10.10;99.90
2571;DHT22;1295;51.130;6.732;2023-04-25T07:59:09;10.20;99.90
2571;DHT22;1295;51.130;6.732;2023-04-25T08:01:35;10.20;99.90
2571;DHT22;1295;51.130;6.732;2023-04-25T08:04:01;10.20;99.90
2571;DHT22;1295;51.130;6.732;2023-04-25T08:06:26;10.10;99.90
2571;DHT22;1295;51.130;6.732;2023-04-25T08:08:52;10.20;99.90
2571;DHT22;1295;51.130;6.732;2023-04-25T08:11:18;10.10;99.90
2571;DHT22;1295;51.130;6.732;2023-04-25T08:13:44;10.10;99.90
2571;DHT22;1295;51.130;6.732;2023-04-25T08:16:10;10.10;99.90
2571;DHT22;1295;51.130;6.732;2023-04-25T08:18:35;10.10;99.90
2571;DHT22;1295;51.130;6.732;2023-04-25T08:21:01;10.00;99.90
2571;DHT22;1295;51.130;6.732;2023-04-25T08:23:26;10.10;99.90
2571;DHT22;1295;51.130;6.732;2023-04-25T08:25:53;10.20;99.90
2571;DHT22;1295;51.130;6.732;2023-04-25T08:28:19;10.20;99.90
2571;DHT22;1295;51.130;6.732;2023-04-25T08:30:44;10.30;99.90
2571;DHT22;1295;51.130;6.732;2023-04-25T08:33:10;10.30;99.90
2571;DHT22;1295;51.130;6.732;2023-04-25T08:35:35;10.70;99.90
2571;DHT22;1295;51.130;6.732;2023-04-25T08:38:01;11.00;99.90
2571;DHT22;1295;51.130;6.732;2023-04-25T08:40:28;10.80;99.90
2571;DHT22;1295;51.130;6.732;2023-04-25T08:42:53;10.80;99.90
2571;DHT22;1295;51.130;6.732;2023-04-25T08:45:19;10.70;99.90
2571;DHT22;1295;51.130;6.732;2023-04-25T08:47:45;10.60;99.90
2571;DHT22;1295;51.130;6.732;2023-04-25T08:50:15;10.80;99.90
2571;DHT22;1295;51.130;6.732;2023-04-25T08:52:46;10.70;99.90
2571;DHT22;1295;51.130;6.732;2023-04-25T08:55:13;10.80;99.90
2571;DHT22;1295;51.130;6.732;2023-04-25T08:57:40;10.70;99.90
2571;DHT22;1295;51.130;6.732;2023-04-25T09:00:06;10.70;99.90
2571;DHT22;1295;51.130;6.732;2023-04-25T09:02:32;10.70;99.90
2571;DHT22;1295;51.130;6.732;2023-04-25T09:04:58;10.60;99.90
2571;DHT22;1295;51.130;6.732;2023-04-25T09:07:24;10.40;99.90
2571;DHT22;1295;51.130;6.732;2023-04-25T09:09:50;10.40;99.90
2571;DHT22;1295;51.130;6.732;2023-04-25T09:12:16;10.40;99.90
2571;DHT22;1295;51.130;6.732;2023-04-25T09:14:41;10.40;99.90
2571;DHT22;1295;51.130;6.732;2023-04-25T09:17:17;10.50;99.90
2571;DHT22;1295;51.130;6.732;2023-04-25T09:19:42;10.50;99.90
2571;DHT22;1295;51.130;6.732;2023-04-25T09:22:08;10.40;99.90
2571;DHT22;1295;51.130;6.732;2023-04-25T09:24:41;10.40;99.90
2571;DHT22;1295;51.130;6.732;2023-04-25T09:27:06;10.40;99.90
2571;DHT22;1295;51.130;6.732;2023-04-25T09:29:32;10.40;99.90
2571;DHT22;1295;51.130;6.732;2023-04-25T09:32:10;10.30;99.90
2571;DHT22;1295;51.130;6.732;2023-04-25T09:34:38;10.30;99.90
2571;DHT22;1295;51.130;6.732;2023-04-25T09:37:01;10.30;99.90
2571;DHT22;1295;51.130;6.732;2023-04-25T09:39:23;10.40;99.90
2571;DHT22;1295;51.130;6.732;2023-04-25T09:41:53;10.40;99.90
2571;DHT22;1295;51.130;6.732;2023-04-25T09:44:14;10.50;99.90
2571;DHT22;1295;51.130;6.732;2023-04-25T09:46:40;10.50;99.90
2571;DHT22;1295;51.130;6.732;2023-04-25T09:49:06;10.50;99.90
2571;DHT22;1295;51.130;6.732;2023-04-25T09:51:31;10.50;99.90
2571;DHT22;1295;51.130;6.732;2023-04-25T09:53:57;10.80;99.90
2571;DHT22;1295;51.130;6.732;2023-04-25T09:56:23;10.90;99.90
2571;DHT22;1295;51.130;6.732;2023-04-25T09:58:49;11.00;99.90
2571;DHT22;1295;51.130;6.732;2023-04-25T10:01:15;11.00;99.90
2571;DHT22;1295;51.130;6.732;2023-04-25T10:03:40;10.80;99.90
2571;DHT22;1295;51.130;6.732;2023-04-25T10:06:07;10.70;99.90
2571;DHT22;1295;51.130;6.732;2023-04-25T10:08:32;10.60;99.90
2571;DHT22;1295;51.130;6.732;2023-04-25T10:10:59;10.60;99.90
2571;DHT22;1295;51.130;6.732;2023-04-25T10:13:23;10.40;99.90
2571;DHT22;1295;51.130;6.732;2023-04-25T10:15:49;10.40;99.90
2571;DHT22;1295;51.130;6.732;2023-04-25T10:18:15;10.50;99.90
2571;DHT22;1295;51.130;6.732;2023-04-25T10:20:40;10.50;99.90
2571;DHT22;1295;51.130;6.732;2023-04-25T10:23:10;10.50;99.90
2571;DHT22;1295;51.130;6.732;2023-04-25T10:25:33;10.50;99.90
2571;DHT22;1295;51.130;6.732;2023-04-25T10:27:59;10.50;99.90
2571;DHT22;1295;51.130;6.732;2023-04-25T10:30:25;10.50;99.90
2571;DHT22;1295;51.130;6.732;2023-04-25T10:32:51;10.60;99.90
2571;DHT22;1295;51.130;6.732;2023-04-25T10:35:18;10.60;99.90
2571;DHT22;1295;51.130;6.732;2023-04-25T10:37:56;10.60;99.90
2571;DHT22;1295;51.130;6.732;2023-04-25T10:40:21;10.60;99.90
2571;DHT22;1295;51.130;6.732;2023-04-25T10:42:47;10.60;99.90
2571;DHT22;1295;51.130;6.732;2023-04-25T10:45:12;10.60;99.90
2571;DHT22;1295;51.130;6.732;2023-04-25T10:47:43;10.60;99.90
2571;DHT22;1295;51.130;6.732;2023-04-25T10:50:06;10.90;99.90
2571;DHT22;1295;51.130;6.732;2023-04-25T10:52:32;10.90;99.90
2571;DHT22;1295;51.130;6.732;2023-04-25T10:54:57;10.70;99.90
2571;DHT22;1295;51.130;6.732;2023-04-25T10:57:37;10.80;99.90
2571;DHT22;1295;51.130;6.732;2023-04-25T11:00:09;10.80;99.90
2571;DHT22;1295;51.130;6.732;2023-04-25T11:02:36;10.80;99.90
2571;DHT22;1295;51.130;6.732;2023-04-25T11:05:02;10.80;99.90
2571;DHT22;1295;51.130;6.732;2023-04-25T11:08:07;10.70;99.90
2571;DHT22;1295;51.130;6.732;2023-04-25T11:10:14;10.60;99.90
2571;DHT22;1295;51.130;6.732;2023-04-25T11:12:39;10.60;99.90
2571;DHT22;1295;51.130;6.732;2023-04-25T11:15:06;10.90;99.90
2571;DHT22;1295;51.130;6.732;2023-04-25T11:17:33;10.80;99.90
2571;DHT22;1295;51.130;6.732;2023-04-25T11:19:59;10.80;99.90
2571;DHT22;1295;51.130;6.732;2023-04-25T11:22:26;11.50;99.90
2571;DHT22;1295;51.130;6.732;2023-04-25T11:24:51;11.40;99.90
2571;DHT22;1295;51.130;6.732;2023-04-25T11:27:16;11.30;99.90
2571;DHT22;1295;51.130;6.732;2023-04-25T11:29:43;11.10;99.90
2571;DHT22;1295;51.130;6.732;2023-04-25T11:32:08;11.10;99.90
2571;DHT22;1295;51.130;6.732;2023-04-25T11:34:37;11.00;99.90
2571;DHT22;1295;51.130;6.732;2023-04-25T11:37:04;11.80;99.90
2571;DHT22;1295;51.130;6.732;2023-04-25T11:39:29;11.80;99.90
2571;DHT22;1295;51.130;6.732;2023-04-25T11:41:54;11.60;99.90
2571;DHT22;1295;51.130;6.732;2023-04-25T11:44:20;11.80;99.90
2571;DHT22;1295;51.130;6.732;2023-04-25T11:46:46;11.70;99.90
2571;DHT22;1295;51.130;6.732;2023-04-25T11:49:11;11.60;99.90
2571;DHT22;1295;51.130;6.732;2023-04-25T11:51:44;11.30;99.90
2571;DHT22;1295;51.130;6.732;2023-04-25T11:54:09;11.30;99.90
2571;DHT22;1295;51.130;6.732;2023-04-25T11:56:35;11.20;99.90
2571;DHT22;1295;51.130;6.732;2023-04-25T11:59:03;11.10;99.90
2571;DHT22;1295;51.130;6.732;2023-04-25T12:01:28;11.10;99.90
2571;DHT22;1295;51.130;6.732;2023-04-25T12:03:53;11.50;99.90
2571;DHT22;1295;51.130;6.732;2023-04-25T12:06:20;12.60;99.90
2571;DHT22;1295;51.130;6.732;2023-04-25T12:09:01;12.80;99.90
2571;DHT22;1295;51.130;6.732;2023-04-25T12:11:29;12.80;99.90
2571;DHT22;1295;51.130;6.732;2023-04-25T12:13:53;12.80;99.90
2571;DHT22;1295;51.130;6.732;2023-04-25T12:16:20;12.90;99.90
2571;DHT22;1295;51.130;6.732;2023-04-25T12:18:45;12.90;99.90
2571;DHT22;1295;51.130;6.732;2023-04-25T12:21:11;12.80;99.90
2571;DHT22;1295;51.130;6.732;2023-04-25T12:23:38;12.50;99.90
2571;DHT22;1295;51.130;6.732;2023-04-25T12:26:02;12.80;99.90
2571;DHT22;1295;51.130;6.732;2023-04-25T12:28:28;13.00;99.90
2571;DHT22;1295;51.130;6.732;2023-04-25T12:31:02;12.90;99.90
2571;DHT22;1295;51.130;6.732;2023-04-25T12:33:29;13.00;99.90
2571;DHT22;1295;51.130;6.732;2023-04-25T12:35:55;12.70;99.90
2571;DHT22;1295;51.130;6.732;2023-04-25T12:38:25;12.70;99.90
2571;DHT22;1295;51.130;6.732;2023-04-25T12:40:50;12.60;99.90
2571;DHT22;1295;51.130;6.732;2023-04-25T12:43:16;13.10;99.90
2571;DHT22;1295;51.130;6.732;2023-04-25T12:45:41;12.90;99.90
2571;DHT22;1295;51.130;6.732;2023-04-25T12:48:07;13.10;99.90
2571;DHT22;1295;51.130;6.732;2023-04-25T12:50:33;13.00;99.90
2571;DHT22;1295;51.130;6.732;2023-04-25T12:52:59;12.90;99.90
2571;DHT22;1295;51.130;6.732;2023-04-25T12:55:24;12.80;99.90
2571;DHT22;1295;51.130;6.732;2023-04-25T12:57:50;13.00;99.90
2571;DHT22;1295;51.130;6.732;2023-04-25T13:00:17;12.90;99.90
2571;DHT22;1295;51.130;6.732;2023-04-25T13:02:43;12.90;99.90
2571;DHT22;1295;51.130;6.732;2023-04-25T13:05:08;13.00;99.90
2571;DHT22;1295;51.130;6.732;2023-04-25T13:07:34;13.10;99.90
2571;DHT22;1295;51.130;6.732;2023-04-25T13:10:00;13.10;99.90
2571;DHT22;1295;51.130;6.732;2023-04-25T13:12:26;13.10;99.90
2571;DHT22;1295;51.130;6.732;2023-04-25T13:14:52;13.00;99.90
2571;DHT22;1295;51.130;6.732;2023-04-25T13:17:17;13.10;99.90
2571;DHT22;1295;51.130;6.732;2023-04-25T13:19:43;13.00;99.90
2571;DHT22;1295;51.130;6.732;2023-04-25T13:22:08;13.00;99.90
2571;DHT22;1295;51.130;6.732;2023-04-25T13:24:34;13.00;99.90
2571;DHT22;1295;51.130;6.732;2023-04-25T13:27:00;13.10;99.90
2571;DHT22;1295;51.130;6.732;2023-04-25T13:29:25;13.00;99.90
2571;DHT22;1295;51.130;6.732;2023-04-25T13:31:51;13.00;99.90
2571;DHT22;1295;51.130;6.732;2023-04-25T13:34:17;13.00;99.90
2571;DHT22;1295;51.130;6.732;2023-04-25T13:36:42;13.00;99.90
2571;DHT22;1295;51.130;6.732;2023-04-25T13:39:08;13.00;99.90
2571;DHT22;1295;51.130;6.732;2023-04-25T13:41:33;12.90;99.90
2571;DHT22;1295;51.130;6.732;2023-04-25T13:43:59;12.90;99.90
2571;DHT22;1295;51.130;6.732;2023-04-25T13:46:26;12.80;99.90
2571;DHT22;1295;51.130;6.732;2023-04-25T13:48:51;12.80;99.90
2571;DHT22;1295;51.130;6.732;2023-04-25T13:51:17;12.90;99.90
2571;DHT22;1295;51.130;6.732;2023-04-25T13:53:42;12.80;99.90
2571;DHT22;1295;51.130;6.732;2023-04-25T13:56:08;12.80;99.90
2571;DHT22;1295;51.130;6.732;2023-04-25T13:58:34;12.70;99.90
2571;DHT22;1295;51.130;6.732;2023-04-25T14:00:59;12.80;99.90
2571;DHT22;1295;51.130;6.732;2023-04-25T14:03:26;12.70;99.90
2571;DHT22;1295;51.130;6.732;2023-04-25T14:05:51;12.70;99.90
2571;DHT22;1295;51.130;6.732;2023-04-25T14:08:17;12.60;99.90
2571;DHT22;1295;51.130;6.732;2023-04-25T14:10:43;12.70;99.90
2571;DHT22;1295;51.130;6.732;2023-04-25T14:13:08;12.70;99.90
2571;DHT22;1295;51.130;6.732;2023-04-25T14:15:34;12.60;99.90
2571;DHT22;1295;51.130;6.732;2023-04-25T14:18:00;12.70;99.90
2571;DHT22;1295;51.130;6.732;2023-04-25T14:20:25;12.70;99.90
2571;DHT22;1295;51.130;6.732;2023-04-25T14:22:51;12.60;99.90
2571;DHT22;1295;51.130;6.732;2023-04-25T14:25:17;12.70;99.90
2571;DHT22;1295;51.130;6.732;2023-04-25T14:27:43;12.70;99.90
2571;DHT22;1295;51.130;6.732;2023-04-25T14:30:09;12.70;99.90
2571;DHT22;1295;51.130;6.732;2023-04-25T14:32:35;12.70;99.90
2571;DHT22;1295;51.130;6.732;2023-04-25T14:35:02;12.70;99.90
2571;DHT22;1295;51.130;6.732;2023-04-25T14:37:27;12.70;99.90
2571;DHT22;1295;51.130;6.732;2023-04-25T14:39:53;12.70;99.90
2571;DHT22;1295;51.130;6.732;2023-04-25T14:42:19;12.80;99.90
2571;DHT22;1295;51.130;6.732;2023-04-25T14:44:45;12.80;99.90
2571;DHT22;1295;51.130;6.732;2023-04-25T14:47:11;12.70;99.90
2571;DHT22;1295;51.130;6.732;2023-04-25T14:49:36;12.70;99.90
2571;DHT22;1295;51.130;6.732;2023-04-25T14:52:02;12.80;99.90
2571;DHT22;1295;51.130;6.732;2023-04-25T14:54:28;12.70;99.90
2571;DHT22;1295;51.130;6.732;2023-04-25T14:56:53;12.70;99.90
2571;DHT22;1295;51.130;6.732;2023-04-25T14:59:19;12.80;99.90
2571;DHT22;1295;51.130;6.732;2023-04-25T15:01:45;12.50;99.90
2571;DHT22;1295;51.130;6.732;2023-04-25T15:04:11;12.50;99.90
2571;DHT22;1295;51.130;6.732;2023-04-25T15:06:36;12.60;99.90
2571;DHT22;1295;51.130;6.732;2023-04-25T15:09:02;12.60;99.90
2571;DHT22;1295;51.130;6.732;2023-04-25T15:11:28;12.60;99.90
2571;DHT22;1295;51.130;6.732;2023-04-25T15:13:54;12.50;99.90
2571;DHT22;1295;51.130;6.732;2023-04-25T15:16:20;12.60;99.90
2571;DHT22;1295;51.130;6.732;2023-04-25T15:18:46;12.50;99.90
2571;DHT22;1295;51.130;6.732;2023-04-25T15:21:11;12.50;99.90
2571;DHT22;1295;51.130;6.732;2023-04-25T15:23:37;12.60;99.90
2571;DHT22;1295;51.130;6.732;2023-04-25T15:26:03;12.40;99.90
2571;DHT22;1295;51.130;6.732;2023-04-25T15:28:29;12.40;99.90
2571;DHT22;1295;51.130;6.732;2023-04-25T15:30:55;12.20;99.90
2571;DHT22;1295;51.130;6.732;2023-04-25T15:33:20;12.40;99.90
2571;DHT22;1295;51.130;6.732;2023-04-25T15:35:46;12.60;99.90
2571;DHT22;1295;51.130;6.732;2023-04-25T15:38:12;12.60;99.90
2571;DHT22;1295;51.130;6.732;2023-04-25T15:40:37;12.50;99.90
2571;DHT22;1295;51.130;6.732;2023-04-25T15:43:03;12.60;99.90
2571;DHT22;1295;51.130;6.732;2023-04-25T15:45:28;12.60;99.90
2571;DHT22;1295;51.130;6.732;2023-04-25T15:47:55;12.60;99.90
2571;DHT22;1295;51.130;6.732;2023-04-25T15:50:20;12.60;99.90
2571;DHT22;1295;51.130;6.732;2023-04-25T15:52:47;12.70;99.90
2571;DHT22;1295;51.130;6.732;2023-04-25T15:55:11;12.70;99.90